Time,TemperatureF,DewpointF,PressureIn,WindDirection,WindDirectionDegrees,WindSpeedMPH,WindSpeedGustMPH,Humidity,HourlyPrecipIn,Conditions,Clouds,dailyrainin,SoftwareType,DateUTC
2013-04-03 05:30:00,24.9,21.0,30.42,NNE,22,0.0,20.0,85,0.00,,,0.00,Wunderground v.1.15,2013-04-03 10:30:00,
2013-04-03 05:35:00,24.7,20.8,30.42,NNE,22,0.0,20.0,85,0.00,,,0.00,Wunderground v.1.15,2013-04-03 10:35:00,
2013-04-03 05:40:00,24.5,20.6,30.42,NNE,22,0.0,0.0,85,0.00,,,0.00,Wunderground v.1.15,2013-04-03 10:40:00,
2013-04-03 05:45:00,24.4,20.5,30.42,NNE,22,0.0,0.0,85,0.00,,,0.00,Wunderground v.1.15,2013-04-03 10:45:00,
2013-04-03 05:50:00,24.3,20.7,30.42,NNE,22,0.0,0.0,86,0.00,,,0.00,Wunderground v.1.15,2013-04-03 10:50:00,
2013-04-03 05:55:00,24.4,20.8,30.42,NNE,22,0.0,0.0,86,0.00,,,0.00,Wunderground v.1.15,2013-04-03 10:55:00,
2013-04-03 06:00:00,24.4,20.8,30.42,NNE,22,0.0,0.0,86,0.00,,,0.00,Wunderground v.1.15,2013-04-03 11:00:00,
2013-04-03 06:05:00,24.4,20.8,30.42,NNE,22,0.0,0.0,86,0.00,,,0.00,Wunderground v.1.15,2013-04-03 11:05:00,
2013-04-03 06:10:00,24.3,20.4,30.42,NNE,22,0.0,0.0,85,0.00,,,0.00,Wunderground v.1.15,2013-04-03 11:10:00,
2013-04-03 06:15:00,24.2,20.3,30.42,NNE,22,0.0,0.0,85,0.00,,,0.00,Wunderground v.1.15,2013-04-03 11:15:00,
2013-04-03 06:20:00,24.3,20.4,30.42,NNE,22,0.0,0.0,85,0.00,,,0.00,Wunderground v.1.15,2013-04-03 11:20:00,
2013-04-03 06:25:00,24.3,20.2,30.42,NNE,22,0.0,0.0,84,0.00,,,0.00,Wunderground v.1.15,2013-04-03 11:25:00,
2013-04-03 06:30:00,24.4,20.3,30.42,NNE,22,0.0,0.0,84,0.00,,,0.00,Wunderground v.1.15,2013-04-03 11:30:00,
2013-04-03 06:35:00,24.5,20.1,30.43,North,360,1.0,1.0,83,0.00,,,0.00,Wunderground v.1.15,2013-04-03 11:35:00,
2013-04-03 06:40:00,24.6,20.2,30.42,North,360,1.0,1.0,83,0.00,,,0.00,Wunderground v.1.15,2013-04-03 11:40:00,
2013-04-03 06:45:00,24.8,20.7,30.42,North,360,0.0,1.0,84,0.00,,,0.00,Wunderground v.1.15,2013-04-03 11:45:00,
2013-04-03 06:50:00,25.0,20.6,30.43,North,360,0.0,0.0,83,0.00,,,0.00,Wunderground v.1.15,2013-04-03 11:50:00,
2013-04-03 06:55:00,25.2,20.8,30.43,North,360,0.0,1.0,83,0.00,,,0.00,Wunderground v.1.15,2013-04-03 11:55:00,
2013-04-03 07:00:00,25.5,20.8,30.43,North,360,1.0,1.0,82,0.00,,,0.00,Wunderground v.1.15,2013-04-03 12:00:00,
2013-04-03 07:10:00,26.1,21.4,30.43,North,360,0.0,0.0,82,0.00,,,0.00,Wunderground v.1.15,2013-04-03 12:10:00,
2013-04-03 07:20:00,27.1,21.7,30.44,North,360,0.0,1.0,80,0.00,,,0.00,Wunderground v.1.15,2013-04-03 12:20:00,
2013-04-03 07:25:00,28.0,21.7,30.44,North,360,1.0,1.0,77,0.00,,,0.00,Wunderground v.1.15,2013-04-03 12:25:00,
2013-04-03 07:30:00,28.5,22.2,30.45,North,360,0.0,0.0,77,0.00,,,0.00,Wunderground v.1.15,2013-04-03 12:30:00,
2013-04-03 07:35:00,28.7,23.0,30.45,North,360,0.0,0.0,79,0.00,,,0.00,Wunderground v.1.15,2013-04-03 12:35:00,
2013-04-03 07:40:00,29.1,23.7,30.46,North,360,0.0,0.0,80,0.00,,,0.00,Wunderground v.1.15,2013-04-03 12:40:00,
2013-04-03 07:45:00,29.5,24.1,30.46,North,360,0.0,0.0,80,0.00,,,0.00,Wunderground v.1.15,2013-04-03 12:45:00,
2013-04-03 07:50:00,30.1,24.4,30.46,North,360,0.0,0.0,79,0.00,,,0.00,Wunderground v.1.15,2013-04-03 12:50:00,
2013-04-03 07:55:00,30.6,24.2,30.47,North,360,0.0,2.0,77,0.00,,,0.00,Wunderground v.1.15,2013-04-03 12:55:00,
2013-04-03 08:00:00,31.1,24.4,30.47,North,360,0.0,0.0,76,0.00,,,0.00,Wunderground v.1.15,2013-04-03 13:00:00,
2013-04-03 08:10:00,32.4,24.4,30.47,North,5,1.0,1.0,72,0.00,,,0.00,Wunderground v.1.15,2013-04-03 13:10:00,
2013-04-03 08:15:00,33.0,24.6,30.47,NE,49,1.0,3.0,71,0.00,,,0.00,Wunderground v.1.15,2013-04-03 13:15:00,
2013-04-03 08:20:00,33.5,23.4,30.48,ENE,76,2.0,3.0,66,0.00,,,0.00,Wunderground v.1.15,2013-04-03 13:20:00,
2013-04-03 08:25:00,33.9,23.4,30.48,ENE,76,2.0,3.0,65,0.00,,,0.00,Wunderground v.1.15,2013-04-03 13:25:00,
2013-04-03 08:30:00,34.4,23.8,30.48,NE,45,2.0,2.0,65,0.00,,,0.00,Wunderground v.1.15,2013-04-03 13:30:00,
2013-04-03 08:35:00,34.9,23.9,30.48,NE,55,2.0,2.0,64,0.00,,,0.00,Wunderground v.1.15,2013-04-03 13:35:00,
2013-04-03 08:40:00,35.4,24.4,30.48,NE,52,2.0,2.0,64,0.00,,,0.00,Wunderground v.1.15,2013-04-03 13:40:00,
2013-04-03 08:45:00,35.8,24.8,30.49,NE,44,1.0,2.0,64,0.00,,,0.00,Wunderground v.1.15,2013-04-03 13:45:00,
2013-04-03 08:50:00,36.1,24.7,30.49,ENE,67,1.0,2.0,63,0.00,,,0.00,Wunderground v.1.15,2013-04-03 13:50:00,
2013-04-03 08:55:00,36.2,24.0,30.49,ENE,77,2.0,4.0,61,0.00,,,0.00,Wunderground v.1.15,2013-04-03 13:55:00,
2013-04-03 09:00:00,36.4,24.2,30.49,ENE,64,3.0,3.0,61,0.00,,,0.00,Wunderground v.1.15,2013-04-03 14:00:00,
2013-04-03 09:05:00,36.6,24.4,30.49,East,86,3.0,6.0,61,0.00,,,0.00,Wunderground v.1.15,2013-04-03 14:05:00,
2013-04-03 09:15:00,37.0,24.8,30.49,ENE,76,3.0,3.0,61,0.00,,,0.00,Wunderground v.1.15,2013-04-03 14:15:00,
2013-04-03 09:20:00,37.3,24.7,30.48,ENE,76,2.0,2.0,60,0.00,,,0.00,Wunderground v.1.15,2013-04-03 14:20:00,
2013-04-03 09:25:00,37.6,24.6,30.48,East,84,3.0,3.0,59,0.00,,,0.00,Wunderground v.1.15,2013-04-03 14:25:00,
2013-04-03 09:30:00,38.0,24.9,30.48,ENE,77,2.0,3.0,59,0.00,,,0.00,Wunderground v.1.15,2013-04-03 14:30:00,
2013-04-03 09:35:00,38.3,24.4,30.49,ESE,108,2.0,3.0,57,0.00,,,0.00,Wunderground v.1.15,2013-04-03 14:35:00,
2013-04-03 09:40:00,38.4,24.1,30.49,East,93,3.0,3.0,56,0.00,,,0.00,Wunderground v.1.15,2013-04-03 14:40:00,
2013-04-03 09:45:00,38.5,24.1,30.49,East,99,2.0,3.0,56,0.00,,,0.00,Wunderground v.1.15,2013-04-03 14:45:00,
2013-04-03 09:50:00,38.5,22.8,30.49,East,101,3.0,3.0,53,0.00,,,0.00,Wunderground v.1.15,2013-04-03 14:50:00,
2013-04-03 09:55:00,38.5,23.7,30.49,East,83,3.0,3.0,55,0.00,,,0.00,Wunderground v.1.15,2013-04-03 14:55:00,
2013-04-03 10:00:00,38.6,24.2,30.49,ENE,76,4.0,4.0,56,0.00,,,0.00,Wunderground v.1.15,2013-04-03 15:00:00,
2013-04-03 10:05:00,39.1,23.4,30.49,ENE,69,3.0,4.0,53,0.00,,,0.00,Wunderground v.1.15,2013-04-03 15:05:00,
2013-04-03 10:10:00,39.4,22.8,30.50,East,80,3.0,6.0,51,0.00,,,0.00,Wunderground v.1.15,2013-04-03 15:10:00,
2013-04-03 10:15:00,39.4,22.8,30.49,ENE,59,3.0,6.0,51,0.00,,,0.00,Wunderground v.1.15,2013-04-03 15:15:00,
2013-04-03 10:20:00,39.6,22.9,30.49,ENE,74,2.0,2.0,51,0.00,,,0.00,Wunderground v.1.15,2013-04-03 15:20:00,
2013-04-03 10:25:00,39.4,21.3,30.50,East,81,3.0,5.0,48,0.00,,,0.00,Wunderground v.1.15,2013-04-03 15:25:00,
2013-04-03 10:30:00,39.6,21.0,30.50,East,95,3.0,3.0,47,0.00,,,0.00,Wunderground v.1.15,2013-04-03 15:30:00,
2013-04-03 10:35:00,39.8,20.7,30.50,South,188,2.0,3.0,46,0.00,,,0.00,Wunderground v.1.15,2013-04-03 15:35:00,
2013-04-03 10:40:00,39.9,21.8,30.50,NW,319,1.0,1.0,48,0.00,,,0.00,Wunderground v.1.15,2013-04-03 15:40:00,
2013-04-03 10:45:00,40.4,21.7,30.49,East,100,2.0,2.0,47,0.00,,,0.00,Wunderground v.1.15,2013-04-03 15:45:00,
2013-04-03 10:50:00,40.2,21.0,30.50,South,184,3.0,3.0,46,0.00,,,0.00,Wunderground v.1.15,2013-04-03 15:50:00,
2013-04-03 10:55:00,40.5,20.8,30.49,ENE,63,2.0,8.0,45,0.00,,,0.00,Wunderground v.1.15,2013-04-03 15:55:00,
2013-04-03 11:00:00,41.0,21.3,30.49,ENE,72,2.0,4.0,45,0.00,,,0.00,Wunderground v.1.15,2013-04-03 16:00:00,
2013-04-03 11:05:00,41.4,21.6,30.50,ENE,61,3.0,4.0,45,0.00,,,0.00,Wunderground v.1.15,2013-04-03 16:05:00,
2013-04-03 11:10:00,41.5,20.6,30.49,North,351,3.0,5.0,43,0.00,,,0.00,Wunderground v.1.15,2013-04-03 16:10:00,
2013-04-03 11:20:00,40.9,20.6,30.49,WNW,292,5.0,5.0,44,0.00,,,0.00,Wunderground v.1.15,2013-04-03 16:20:00,
2013-04-03 11:25:00,41.0,21.3,30.49,NE,55,3.0,5.0,45,0.00,,,0.00,Wunderground v.1.15,2013-04-03 16:25:00,
2013-04-03 11:30:00,41.5,22.2,30.49,North,349,2.0,4.0,46,0.00,,,0.00,Wunderground v.1.15,2013-04-03 16:30:00,
2013-04-03 11:35:00,42.2,22.4,30.49,North,5,2.0,5.0,45,0.00,,,0.00,Wunderground v.1.15,2013-04-03 16:35:00,
2013-04-03 11:40:00,42.9,21.9,30.49,NW,317,3.0,5.0,43,0.00,,,0.00,Wunderground v.1.15,2013-04-03 16:40:00,
2013-04-03 11:45:00,42.3,22.4,30.48,NNW,336,4.0,5.0,45,0.00,,,0.00,Wunderground v.1.15,2013-04-03 16:45:00,
2013-04-03 11:55:00,43.0,23.1,30.48,NE,54,1.0,4.0,45,0.00,,,0.00,Wunderground v.1.15,2013-04-03 16:55:00,
2013-04-03 12:00:00,43.2,22.2,30.48,East,91,2.0,3.0,43,0.00,,,0.00,Wunderground v.1.15,2013-04-03 17:00:00,
2013-04-03 12:10:00,42.8,21.3,30.48,NW,318,4.0,4.0,42,0.00,,,0.00,Wunderground v.1.15,2013-04-03 17:10:00,
2013-04-03 12:15:00,42.8,20.1,30.48,WSW,238,3.0,4.0,40,0.00,,,0.00,Wunderground v.1.15,2013-04-03 17:15:00,
2013-04-03 12:20:00,43.3,22.3,30.47,East,94,2.0,2.0,43,0.00,,,0.00,Wunderground v.1.15,2013-04-03 17:20:00,
2013-04-03 12:25:00,44.3,20.3,30.47,East,83,3.0,3.0,38,0.00,,,0.00,Wunderground v.1.15,2013-04-03 17:25:00,
2013-04-03 12:30:00,44.3,19.6,30.47,East,101,3.0,3.0,37,0.00,,,0.00,Wunderground v.1.15,2013-04-03 17:30:00,
2013-04-03 12:35:00,44.2,19.5,30.47,ENE,77,3.0,4.0,37,0.00,,,0.00,Wunderground v.1.15,2013-04-03 17:35:00,
2013-04-03 12:40:00,44.1,20.7,30.47,North,355,4.0,6.0,39,0.00,,,0.00,Wunderground v.1.15,2013-04-03 17:40:00,
2013-04-03 12:50:00,44.6,19.9,30.47,ENE,65,3.0,3.0,37,0.00,,,0.00,Wunderground v.1.15,2013-04-03 17:50:00,
2013-04-03 12:55:00,44.3,19.6,30.46,East,98,4.0,4.0,37,0.00,,,0.00,Wunderground v.1.15,2013-04-03 17:55:00,
2013-04-03 13:00:00,44.3,20.3,30.46,NNW,345,4.0,4.0,38,0.00,,,0.00,Wunderground v.1.15,2013-04-03 18:00:00,
2013-04-03 13:05:00,44.5,21.6,30.45,NE,52,3.0,4.0,40,0.00,,,0.00,Wunderground v.1.15,2013-04-03 18:05:00,
2013-04-03 13:10:00,45.2,21.1,30.45,NNE,22,3.0,5.0,38,0.00,,,0.00,Wunderground v.1.15,2013-04-03 18:10:00,
2013-04-03 13:15:00,45.6,22.0,30.44,NE,55,3.0,5.0,39,0.00,,,0.00,Wunderground v.1.15,2013-04-03 18:15:00,
2013-04-03 13:20:00,46.3,22.0,30.44,NE,34,4.0,4.0,38,0.00,,,0.00,Wunderground v.1.15,2013-04-03 18:20:00,
2013-04-03 13:25:00,46.5,21.6,30.44,NNE,16,4.0,5.0,37,0.00,,,0.00,Wunderground v.1.15,2013-04-03 18:25:00,
2013-04-03 13:30:00,46.0,19.8,30.44,East,88,3.0,9.0,35,0.00,,,0.00,Wunderground v.1.15,2013-04-03 18:30:00,
2013-04-03 13:35:00,45.8,21.6,30.43,ENE,61,3.0,9.0,38,0.00,,,0.00,Wunderground v.1.15,2013-04-03 18:35:00,
2013-04-03 13:40:00,45.7,20.2,30.43,East,82,5.0,7.0,36,0.00,,,0.00,Wunderground v.1.15,2013-04-03 18:40:00,
2013-04-03 13:45:00,46.1,21.2,30.43,NE,38,5.0,7.0,37,0.00,,,0.00,Wunderground v.1.15,2013-04-03 18:45:00,
2013-04-03 13:50:00,46.8,21.2,30.42,ENE,69,3.0,3.0,36,0.00,,,0.00,Wunderground v.1.15,2013-04-03 18:50:00,
2013-04-03 13:55:00,47.5,22.5,30.42,NNE,17,3.0,8.0,37,0.00,,,0.00,Wunderground v.1.15,2013-04-03 18:55:00,
2013-04-03 14:05:00,47.4,22.4,30.42,ENE,71,4.0,10.0,37,0.00,,,0.00,Wunderground v.1.15,2013-04-03 19:05:00,
2013-04-03 14:10:00,47.0,22.0,30.41,NNE,13,4.0,4.0,37,0.00,,,0.00,Wunderground v.1.15,2013-04-03 19:10:00,
2013-04-03 14:15:00,47.7,25.1,30.41,NE,42,4.0,4.0,41,0.00,,,0.00,Wunderground v.1.15,2013-04-03 19:15:00,
2013-04-03 14:20:00,47.2,23.5,30.41,ENE,73,4.0,4.0,39,0.00,,,0.00,Wunderground v.1.15,2013-04-03 19:20:00,
2013-04-03 14:25:00,46.9,23.2,30.41,NE,48,6.0,6.0,39,0.00,,,0.00,Wunderground v.1.15,2013-04-03 19:25:00,
2013-04-03 14:30:00,47.4,24.3,30.41,East,84,5.0,5.0,40,0.00,,,0.00,Wunderground v.1.15,2013-04-03 19:30:00,
2013-04-03 14:40:00,47.7,23.9,30.41,NE,43,6.0,6.0,39,0.00,,,0.00,Wunderground v.1.15,2013-04-03 19:40:00,
2013-04-03 14:45:00,48.3,23.8,30.40,ENE,70,4.0,6.0,38,0.00,,,0.00,Wunderground v.1.15,2013-04-03 19:45:00,
2013-04-03 14:50:00,49.0,23.8,30.40,NNE,30,2.0,2.0,37,0.00,,,0.00,Wunderground v.1.15,2013-04-03 19:50:00,
2013-04-03 14:55:00,49.3,24.1,30.40,ENE,70,3.0,7.0,37,0.00,,,0.00,Wunderground v.1.15,2013-04-03 19:55:00,
2013-04-03 15:00:00,48.9,23.1,30.40,NE,40,5.0,5.0,36,0.00,,,0.00,Wunderground v.1.15,2013-04-03 20:00:00,
2013-04-03 15:05:00,48.7,22.9,30.40,ENE,59,5.0,5.0,36,0.00,,,0.00,Wunderground v.1.15,2013-04-03 20:05:00,
2013-04-03 15:10:00,49.0,23.8,30.40,NE,50,4.0,4.0,37,0.00,,,0.00,Wunderground v.1.15,2013-04-03 20:10:00,
2013-04-03 15:15:00,49.3,23.4,30.40,East,83,2.0,4.0,36,0.00,,,0.00,Wunderground v.1.15,2013-04-03 20:15:00,
2013-04-03 15:20:00,49.5,23.6,30.39,ENE,65,3.0,7.0,36,0.00,,,0.00,Wunderground v.1.15,2013-04-03 20:20:00,
2013-04-03 15:25:00,49.4,22.9,30.40,NE,41,5.0,7.0,35,0.00,,,0.00,Wunderground v.1.15,2013-04-03 20:25:00,
2013-04-03 15:30:00,49.6,23.0,30.40,ENE,62,5.0,5.0,35,0.00,,,0.00,Wunderground v.1.15,2013-04-03 20:30:00,
2013-04-03 15:35:00,49.8,23.9,30.40,East,95,4.0,8.0,36,0.00,,,0.00,Wunderground v.1.15,2013-04-03 20:35:00,
2013-04-03 15:40:00,49.3,22.1,30.40,East,100,4.0,6.0,34,0.00,,,0.00,Wunderground v.1.15,2013-04-03 20:40:00,
2013-04-03 15:45:00,49.3,22.1,30.39,ESE,103,4.0,6.0,34,0.00,,,0.00,Wunderground v.1.15,2013-04-03 20:45:00,
2013-04-03 15:50:00,49.6,22.3,30.39,East,79,2.0,5.0,34,0.00,,,0.00,Wunderground v.1.15,2013-04-03 20:50:00,
2013-04-03 15:55:00,50.2,23.6,30.39,ENE,69,2.0,5.0,35,0.00,,,0.00,Wunderground v.1.15,2013-04-03 20:55:00,
2013-04-03 16:00:00,50.3,23.7,30.39,ENE,74,3.0,5.0,35,0.00,,,0.00,Wunderground v.1.15,2013-04-03 21:00:00,
2013-04-03 16:05:00,49.9,22.6,30.39,East,88,3.0,5.0,34,0.00,,,0.00,Wunderground v.1.15,2013-04-03 21:05:00,
2013-04-03 16:10:00,49.8,22.5,30.39,East,79,4.0,7.0,34,0.00,,,0.00,Wunderground v.1.15,2013-04-03 21:10:00,
2013-04-03 16:15:00,49.5,22.3,30.39,East,85,5.0,7.0,34,0.00,,,0.00,Wunderground v.1.15,2013-04-03 21:15:00,
2013-04-03 16:20:00,49.3,22.1,30.39,ESE,111,5.0,5.0,34,0.00,,,0.00,Wunderground v.1.15,2013-04-03 21:20:00,
2013-04-03 16:25:00,49.7,23.8,30.39,ENE,75,4.0,5.0,36,0.00,,,0.00,Wunderground v.1.15,2013-04-03 21:25:00,
2013-04-03 16:30:00,49.7,23.1,30.39,ENE,74,4.0,4.0,35,0.00,,,0.00,Wunderground v.1.15,2013-04-03 21:30:00,
2013-04-03 16:40:00,49.4,22.9,30.39,ENE,67,4.0,10.0,35,0.00,,,0.00,Wunderground v.1.15,2013-04-03 21:40:00,
2013-04-03 16:45:00,49.4,23.5,30.39,East,79,4.0,10.0,36,0.00,,,0.00,Wunderground v.1.15,2013-04-03 21:45:00,
2013-04-03 16:50:00,49.4,22.9,30.39,East,93,4.0,4.0,35,0.00,,,0.00,Wunderground v.1.15,2013-04-03 21:50:00,
2013-04-03 16:55:00,49.5,22.9,30.38,East,90,3.0,5.0,35,0.00,,,0.00,Wunderground v.1.15,2013-04-03 21:55:00,
2013-04-03 17:00:00,49.9,24.0,30.38,East,86,2.0,3.0,36,0.00,,,0.00,Wunderground v.1.15,2013-04-03 22:00:00,
2013-04-03 17:10:00,49.8,23.2,30.38,SE,126,3.0,3.0,35,0.00,,,0.00,Wunderground v.1.15,2013-04-03 22:10:00,
2013-04-03 17:15:00,50.0,22.7,30.38,SSE,168,3.0,3.0,34,0.00,,,0.00,Wunderground v.1.15,2013-04-03 22:15:00,
2013-04-03 17:20:00,50.1,22.1,30.38,East,87,3.0,7.0,33,0.00,,,0.00,Wunderground v.1.15,2013-04-03 22:20:00,
2013-04-03 17:25:00,49.8,22.5,30.38,East,80,4.0,7.0,34,0.00,,,0.00,Wunderground v.1.15,2013-04-03 22:25:00,
2013-04-03 17:30:00,49.6,22.3,30.38,ENE,61,4.0,4.0,34,0.00,,,0.00,Wunderground v.1.15,2013-04-03 22:30:00,
2013-04-03 17:35:00,49.6,22.3,30.38,ENE,72,3.0,4.0,34,0.00,,,0.00,Wunderground v.1.15,2013-04-03 22:35:00,
2013-04-03 17:40:00,49.8,21.8,30.38,East,84,2.0,3.0,33,0.00,,,0.00,Wunderground v.1.15,2013-04-03 22:40:00,
2013-04-03 17:50:00,49.8,21.8,30.37,East,83,3.0,3.0,33,0.00,,,0.00,Wunderground v.1.15,2013-04-03 22:50:00,
2013-04-03 17:55:00,49.8,22.5,30.38,East,92,3.0,9.0,34,0.00,,,0.00,Wunderground v.1.15,2013-04-03 22:55:00,
2013-04-03 18:00:00,49.8,22.5,30.37,East,82,4.0,7.0,34,0.00,,,0.00,Wunderground v.1.15,2013-04-03 23:00:00,
2013-04-03 18:05:00,49.5,22.3,30.37,East,88,4.0,7.0,34,0.00,,,0.00,Wunderground v.1.15,2013-04-03 23:05:00,
2013-04-03 18:10:00,49.2,21.3,30.37,East,101,5.0,5.0,33,0.00,,,0.00,Wunderground v.1.15,2013-04-03 23:10:00,
2013-04-03 18:15:00,49.0,21.8,30.37,ENE,75,5.0,5.0,34,0.00,,,0.00,Wunderground v.1.15,2013-04-03 23:15:00,
2013-04-03 18:20:00,48.9,21.0,30.37,ENE,75,4.0,4.0,33,0.00,,,0.00,Wunderground v.1.15,2013-04-03 23:20:00,
2013-04-03 18:25:00,48.9,21.7,30.37,ENE,76,3.0,4.0,34,0.00,,,0.00,Wunderground v.1.15,2013-04-03 23:25:00,
2013-04-03 18:30:00,48.7,22.2,30.37,East,85,3.0,5.0,35,0.00,,,0.00,Wunderground v.1.15,2013-04-03 23:30:00,
2013-04-03 18:35:00,48.6,22.1,30.37,ENE,74,3.0,5.0,35,0.00,,,0.00,Wunderground v.1.15,2013-04-03 23:35:00,
2013-04-03 18:40:00,48.5,22.1,30.37,East,81,2.0,2.0,35,0.00,,,0.00,Wunderground v.1.15,2013-04-03 23:40:00,
2013-04-03 18:50:00,48.2,22.5,30.37,ENE,76,2.0,2.0,36,0.00,,,0.00,Wunderground v.1.15,2013-04-03 23:50:00,
2013-04-03 18:55:00,47.9,22.8,30.37,ENE,76,2.0,4.0,37,0.00,,,0.00,Wunderground v.1.15,2013-04-03 23:55:00,
2013-04-03 19:00:00,47.6,23.8,30.37,East,86,2.0,2.0,39,0.00,,,0.00,Wunderground v.1.15,2013-04-04 00:00:00,
2013-04-03 19:05:00,47.3,24.2,30.37,East,86,2.0,2.0,40,0.00,,,0.00,Wunderground v.1.15,2013-04-04 00:05:00,
2013-04-03 19:10:00,46.9,25.0,30.37,East,86,0.0,1.0,42,0.00,,,0.00,Wunderground v.1.15,2013-04-04 00:10:00,
2013-04-03 19:20:00,46.2,26.0,30.37,East,86,0.0,0.0,45,0.00,,,0.00,Wunderground v.1.15,2013-04-04 00:20:00,
2013-04-03 19:25:00,45.9,25.2,30.37,East,86,0.0,0.0,44,0.00,,,0.00,Wunderground v.1.15,2013-04-04 00:25:00,
2013-04-03 19:30:00,45.5,26.4,30.37,East,86,0.0,0.0,47,0.00,,,0.00,Wunderground v.1.15,2013-04-04 00:30:00,
2013-04-03 19:35:00,44.6,24.5,30.38,East,85,1.0,2.0,45,0.00,,,0.00,Wunderground v.1.15,2013-04-04 00:35:00,
2013-04-03 19:40:00,43.8,23.8,30.37,East,88,2.0,2.0,45,0.00,,,0.00,Wunderground v.1.15,2013-04-04 00:40:00,
2013-04-03 19:50:00,42.9,23.0,30.38,ENE,64,2.0,2.0,45,0.00,,,0.00,Wunderground v.1.15,2013-04-04 00:50:00,
2013-04-03 19:55:00,42.4,23.1,30.38,ENE,70,2.0,4.0,46,0.00,,,0.00,Wunderground v.1.15,2013-04-04 00:55:00,
2013-04-03 20:00:00,41.9,23.1,30.38,ENE,67,2.0,2.0,47,0.00,,,0.00,Wunderground v.1.15,2013-04-04 01:00:00,
2013-04-03 20:05:00,41.5,23.7,30.38,ENE,66,2.0,2.0,49,0.00,,,0.00,Wunderground v.1.15,2013-04-04 01:05:00,
2013-04-03 20:10:00,41.1,23.4,30.38,ENE,63,2.0,2.0,49,0.00,,,0.00,Wunderground v.1.15,2013-04-04 01:10:00,
2013-04-03 20:15:00,40.6,23.4,30.38,ENE,62,2.0,2.0,50,0.00,,,0.00,Wunderground v.1.15,2013-04-04 01:15:00,
2013-04-03 20:20:00,40.1,22.9,30.38,NE,49,2.0,2.0,50,0.00,,,0.00,Wunderground v.1.15,2013-04-04 01:20:00,
2013-04-03 20:25:00,39.6,23.4,30.38,ENE,78,2.0,5.0,52,0.00,,,0.00,Wunderground v.1.15,2013-04-04 01:25:00,
2013-04-03 20:30:00,39.1,23.4,30.38,ENE,65,3.0,3.0,53,0.00,,,0.00,Wunderground v.1.15,2013-04-04 01:30:00,
2013-04-03 20:35:00,38.7,23.5,30.38,ENE,63,3.0,3.0,54,0.00,,,0.00,Wunderground v.1.15,2013-04-04 01:35:00,
2013-04-03 20:40:00,38.4,23.2,30.38,East,82,2.0,5.0,54,0.00,,,0.00,Wunderground v.1.15,2013-04-04 01:40:00,
2013-04-03 20:45:00,38.2,22.6,30.38,East,85,2.0,5.0,53,0.00,,,0.00,Wunderground v.1.15,2013-04-04 01:45:00,
2013-04-03 20:50:00,38.2,23.0,30.38,ENE,73,3.0,3.0,54,0.00,,,0.00,Wunderground v.1.15,2013-04-04 01:50:00,
2013-04-03 20:55:00,37.9,23.2,30.38,ENE,65,2.0,5.0,55,0.00,,,0.00,Wunderground v.1.15,2013-04-04 01:55:00,
2013-04-03 21:00:00,37.6,22.9,30.38,East,94,2.0,6.0,55,0.00,,,0.00,Wunderground v.1.15,2013-04-04 02:00:00,
2013-04-03 21:05:00,37.5,22.8,30.38,ENE,65,3.0,6.0,55,0.00,,,0.00,Wunderground v.1.15,2013-04-04 02:05:00,
2013-04-03 21:10:00,37.3,22.6,30.38,East,80,3.0,6.0,55,0.00,,,0.00,Wunderground v.1.15,2013-04-04 02:10:00,
2013-04-03 21:15:00,37.1,22.4,30.38,ENE,72,3.0,6.0,55,0.00,,,0.00,Wunderground v.1.15,2013-04-04 02:15:00,
2013-04-03 21:20:00,36.8,22.6,30.38,ENE,78,3.0,4.0,56,0.00,,,0.00,Wunderground v.1.15,2013-04-04 02:20:00,
2013-04-03 21:25:00,36.6,22.4,30.38,NE,53,3.0,5.0,56,0.00,,,0.00,Wunderground v.1.15,2013-04-04 02:25:00,
2013-04-03 21:30:00,36.4,22.2,30.38,NE,44,3.0,3.0,56,0.00,,,0.00,Wunderground v.1.15,2013-04-04 02:30:00,
2013-04-03 21:35:00,36.1,21.9,30.38,East,94,4.0,4.0,56,0.00,,,0.00,Wunderground v.1.15,2013-04-04 02:35:00,
2013-04-03 21:40:00,36.0,22.2,30.37,ENE,75,3.0,3.0,57,0.00,,,0.00,Wunderground v.1.15,2013-04-04 02:40:00,
2013-04-03 21:45:00,35.8,22.0,30.37,ENE,71,3.0,4.0,57,0.00,,,0.00,Wunderground v.1.15,2013-04-04 02:45:00,
2013-04-03 21:50:00,35.6,22.3,30.37,ENE,70,3.0,3.0,58,0.00,,,0.00,Wunderground v.1.15,2013-04-04 02:50:00,
2013-04-03 21:55:00,35.3,22.4,30.37,East,82,3.0,7.0,59,0.00,,,0.00,Wunderground v.1.15,2013-04-04 02:55:00,
2013-04-03 22:00:00,35.1,22.2,30.37,ENE,72,3.0,3.0,59,0.00,,,0.00,Wunderground v.1.15,2013-04-04 03:00:00,
2013-04-03 22:10:00,34.7,22.2,30.37,ENE,64,2.0,3.0,60,0.00,,,0.00,Wunderground v.1.15,2013-04-04 03:10:00,
2013-04-03 22:15:00,34.6,22.1,30.37,ENE,67,3.0,3.0,60,0.00,,,0.00,Wunderground v.1.15,2013-04-04 03:15:00,
2013-04-03 22:20:00,34.4,22.3,30.37,ENE,73,3.0,3.0,61,0.00,,,0.00,Wunderground v.1.15,2013-04-04 03:20:00,